地図

経路データ

SID SEASON NUMBER BASIN SUBBASIN NAME ISO_TIME NATURE LAT LON WMO_WIND WMO_PRES WMO_AGENCY TRACK_TYPE DIST2LAND LANDFALL IFLAG USA_AGENCY USA_ATCF_ID USA_LAT USA_LON USA_RECORD USA_STATUS USA_WIND USA_PRES USA_SSHS USA_R34_NE USA_R34_SE USA_R34_SW USA_R34_NW USA_R50_NE USA_R50_SE USA_R50_SW USA_R50_NW USA_R64_NE USA_R64_SE USA_R64_SW USA_R64_NW USA_POCI USA_ROCI USA_RMW USA_EYE TOKYO_LAT TOKYO_LON TOKYO_GRADE TOKYO_WIND TOKYO_PRES TOKYO_R50_DIR TOKYO_R50_LONG TOKYO_R50_SHORT TOKYO_R30_DIR TOKYO_R30_LONG TOKYO_R30_SHORT TOKYO_LAND CMA_LAT CMA_LON CMA_CAT CMA_WIND CMA_PRES HKO_LAT HKO_LON HKO_CAT HKO_WIND HKO_PRES NEWDELHI_LAT NEWDELHI_LON NEWDELHI_GRADE NEWDELHI_WIND NEWDELHI_PRES NEWDELHI_CI NEWDELHI_DP NEWDELHI_POCI REUNION_LAT REUNION_LON REUNION_TYPE REUNION_WIND REUNION_PRES REUNION_TNUM REUNION_CI REUNION_RMW REUNION_R34_NE REUNION_R34_SE REUNION_R34_SW REUNION_R34_NW REUNION_R50_NE REUNION_R50_SE REUNION_R50_SW REUNION_R50_NW REUNION_R64_NE REUNION_R64_SE REUNION_R64_SW REUNION_R64_NW BOM_LAT BOM_LON BOM_TYPE BOM_WIND BOM_PRES BOM_TNUM BOM_CI BOM_RMW BOM_R34_NE BOM_R34_SE BOM_R34_SW BOM_R34_NW BOM_R50_NE BOM_R50_SE BOM_R50_SW BOM_R50_NW BOM_R64_NE BOM_R64_SE BOM_R64_SW BOM_R64_NW BOM_ROCI BOM_POCI BOM_EYE BOM_POS_METHOD BOM_PRES_METHOD NADI_LAT NADI_LON NADI_CAT NADI_WIND NADI_PRES WELLINGTON_LAT WELLINGTON_LON WELLINGTON_WIND WELLINGTON_PRES DS824_LAT DS824_LON DS824_STAGE DS824_WIND DS824_PRES TD9636_LAT TD9636_LON TD9636_STAGE TD9636_WIND TD9636_PRES TD9635_LAT TD9635_LON TD9635_WIND TD9635_PRES TD9635_ROCI NEUMANN_LAT NEUMANN_LON NEUMANN_CLASS NEUMANN_WIND NEUMANN_PRES MLC_LAT MLC_LON MLC_CLASS MLC_WIND MLC_PRES USA_GUST BOM_GUST BOM_GUST_PER REUNION_GUST REUNION_GUST_PER USA_SEAHGT USA_SEARAD_NE USA_SEARAD_SE USA_SEARAD_SW USA_SEARAD_NW STORM_SPEED STORM_DIR
1954036S14149 1954 6 SP EA NOT_NAMED 1954-02-04 23:00:00 NR -14.0500 148.950 1006 bom main 391 402 ______O___O___ -1 -14.0000 149.000 1006 -14.1000 148.900 4 7 166
1954036S14149 1954 6 SP EA NOT_NAMED 1954-02-05 00:00:00 TS -14.1585 148.954 main 406 397 O_____P__OP___ jtwc_sh SH071954 -14.2000 148.900 -1 -14.1118 149.002 -14.1000 149.000 TC 15 1006 -14.1929 148.938 4 7 169
1954036S14149 1954 6 SP EA NOT_NAMED 1954-02-05 03:00:00 TS -14.4712 149.041 main 397 397 P_____P__PP___ SH071954 -14.5025 149.075 -1 -14.4465 149.007 -14.4406 149.015 TC -14.4744 149.047 4 6 166
1954036S14149 1954 6 SP EA NOT_NAMED 1954-02-05 06:00:00 TS -14.7833 149.110 main 401 397 O_____P__PP___ jtwc_sh SH071954 -14.8000 149.200 -1 -14.7784 149.011 -14.7785 149.029 TC -14.7667 149.136 4 6 171
1954036S14149 1954 6 SP EA NOT_NAMED 1954-02-05 09:00:00 TS -15.0958 149.144 main 397 391 P_____P__PP___ SH071954 -15.0925 149.238 -1 -15.1052 149.014 -15.1111 149.040 TC -15.0780 149.190 4 6 177
1954036S14149 1954 6 SP EA NOT_NAMED 1954-02-05 11:00:00 TS -15.3073 149.140 main 391 385 P_____P__PO___ SH071954 -15.2943 149.219 -1 -15.3192 149.015 -15.3286 149.045 TC -15.3000 149.200 4 6 0
1954036S14149 1954 6 SP EA NOT_NAMED 1954-02-05 12:00:00 TS -15.4153 149.131 main 385 371 O_____P__PP___ jtwc_sh SH071954 -15.4000 149.200 -1 -15.4248 149.016 -15.4357 149.046 TC -15.4161 149.195 4 7 187
1954036S14149 1954 6 SP EA NOT_NAMED 1954-02-05 15:00:00 TS -15.7495 149.085 main 371 341 P_____P__PP___ SH071954 -15.7425 149.108 -1 -15.7350 149.015 -15.7496 149.047 TC -15.7780 149.148 4 7 189
1954036S14149 1954 6 SP EA NOT_NAMED 1954-02-05 18:00:00 TS -16.0854 149.024 main 341 328 O_____P__PP___ jtwc_sh SH071954 -16.1000 149.000 -1 -16.0337 149.012 -16.0500 149.041 TC -16.1433 149.065 4 7 189
1954036S14149 1954 6 SP EA NOT_NAMED 1954-02-05 21:00:00 TS -16.4176 148.979 main 328 321 P_____P__PP___ SH071954 -16.4725 148.950 -1 -16.3187 149.006 -16.3344 149.025 TC -16.4900 148.966 4 7 188
1954036S14149 1954 6 SP EA NOT_NAMED 1954-02-05 23:00:00 TS -16.6229 148.950 1002 bom main 310 307 P_____O__PO___ SH071954 -16.7005 148.920 -1 -16.5000 149.000 1002 -16.5137 149.010 TC -16.7000 148.900 4 6 188
1954036S14149 1954 6 SP EA NOT_NAMED 1954-02-06 00:00:00 TS -16.7157 148.934 main 307 302 O_____P__OP___ jtwc_sh SH071954 -16.8000 148.900 -1 -16.5879 148.996 -16.6000 149.000 TC 25 1002 -16.7905 148.876 4 5 193
1954036S14149 1954 6 SP EA NOT_NAMED 1954-02-06 03:00:00 TS -16.9503 148.869 main 300 287 P_____P__PP___ SH071954 -17.0150 148.800 -1 -16.8417 148.980 -16.8459 148.962 TC -17.0340 148.805 4 5 197
1954036S14149 1954 6 SP EA NOT_NAMED 1954-02-06 06:00:00 TS -17.1626 148.798 main 287 262 O_____P__PP___ jtwc_sh SH071954 -17.2000 148.700 -1 -17.0850 148.948 -17.0779 148.909 TC -17.2501 148.733 4 5 196
1954036S14149 1954 6 SP EA NOT_NAMED 1954-02-06 09:00:00 TS -17.3937 148.737 main 262 252 P_____P__PP___ SH071954 -17.4425 148.650 -1 -17.3225 148.894 -17.3036 148.835 TC -17.4574 148.656 4 5 195
1954036S14149 1954 6 SP EA NOT_NAMED 1954-02-06 11:00:00 TS -17.5525 148.691 main 243 243 P_____P__PO___ SH071954 -17.6140 148.620 -1 -17.4801 148.842 -17.4543 148.772 TC -17.6000 148.600 4 5 196
1954036S14149 1954 6 SP EA NOT_NAMED 1954-02-06 12:00:00 TS -17.6342 148.663 main 243 210 O_____P__PP___ jtwc_sh SH071954 -17.7000 148.600 -1 -17.5592 148.810 -17.5305 148.736 TC -17.6812 148.570 4 5 201
1954036S14149 1954 6 SP EA NOT_NAMED 1954-02-06 15:00:00 TS -17.8794 148.556 main 210 179 P_____P__PP___ SH071954 -17.9500 148.508 -1 -17.8002 148.686 -17.7661 148.607 TC -17.9309 148.475 4 5 204
1954036S14149 1954 6 SP EA NOT_NAMED 1954-02-06 18:00:00 TS -18.1306 148.426 main 179 146 O_____P__PP___ jtwc_sh SH071954 -18.2000 148.400 -1 -18.0501 148.514 -18.0179 148.445 TC -18.1847 148.373 4 6 207
1954036S14149 1954 6 SP EA NOT_NAMED 1954-02-06 21:00:00 TS -18.3918 148.280 main 146 122 P_____P__PP___ SH071954 -18.4575 148.300 -1 -18.3140 148.287 -18.2934 148.244 TC -18.4364 148.269 4 6 209
1954036S14149 1954 6 SP EA NOT_NAMED 1954-02-06 23:00:00 TS -18.5677 148.171 996 bom main 122 115 P_____O__PO___ SH071954 -18.6224 148.233 -1 -18.5000 148.100 996 -18.4939 148.086 TC -18.6000 148.200 4 6 213
1954036S14149 1954 6 SP EA NOT_NAMED 1954-02-07 00:00:00 TS -18.6484 148.103 main 115 76 O_____P__OP___ jtwc_sh SH071954 -18.7000 148.200 -1 -18.5699 147.951 995 -18.6000 148.000 TC 35 996 -18.6722 148.163 4 6 219
1954036S14149 1954 6 SP EA NOT_NAMED 1954-02-07 03:00:00 TS -18.8945 147.893 main 76 53 P_____P__PP___ SH071954 -18.9000 148.100 -1 -18.8279 147.536 993 -18.9639 147.680 TC -18.8808 148.050 4 6 215
1954036S14149 1954 6 SP EA NOT_NAMED 1954-02-07 05:00:00 TS -19.0751 147.785 bom main 53 46 P_____I__PP___ SH071954 -19.0302 148.033 -1 -19.1000 147.400 992 -19.1951 147.482 TC -19.0200 147.977 4 6 206
1954036S14149 1954 6 SP EA NOT_NAMED 1954-02-07 06:00:00 TS -19.1777 147.751 main 46 23 O_____P__OP___ jtwc_sh SH071954 -19.1000 148.000 -1 -19.2969 147.412 991 -19.3000 147.400 TC -19.0918 147.943 4 6 195
1954036S14149 1954 6 SP EA NOT_NAMED 1954-02-07 08:00:00 TS -19.3729 147.698 990 bom main 23 23 P_____O__PP___ SH071954 -19.2479 147.928 -1 -19.7000 147.500 990 4 -19.4257 147.257 TC -19.2432 147.878 4 6 196
1954036S14149 1954 6 SP EA NOT_NAMED 1954-02-07 09:00:00 TS -19.4522 147.666 main 20 10 P_____P__PP___ SH071954 -19.3275 147.893 -1 -19.8119 147.495 990 -19.4699 147.202 TC -19.3241 147.850 4 5 202
1954036S14149 1954 6 SP EA NOT_NAMED 1954-02-07 11:00:00 TS -19.5894 147.602 main 10 10 P_____P__PO___ SH071954 -19.5026 147.828 -1 -19.9013 147.430 993 -19.5405 147.126 TC -19.5000 147.800 4 4 204
1954036S14149 1954 6 SP EA NOT_NAMED 1954-02-07 12:00:00 TS -19.6561 147.576 main 0 0 O_____P__PP___ jtwc_sh SH071954 -19.6000 147.800 -1 -19.9015 147.384 993 -19.5744 147.107 TC -19.6048 147.789 4 5 194
1954036S14149 1954 6 SP EA NOT_NAMED 1954-02-07 15:00:00 TS -19.8794 147.528 main 0 0 P_____P__PP___ SH071954 -19.9350 147.735 -1 -19.8615 147.262 996 -19.7167 147.134 TC -19.9488 147.775 4 5 0
1954036S14149 1954 6 SP EA NOT_NAMED 1954-02-07 18:00:00 TS -20.1831 147.554 1000 bom main 0 0 O_____O__OP___ jtwc_sh SH071954 -20.3000 147.700 -1 -20.0000 147.300 1000 -20.0000 147.300 TC 30 1000 -20.3153 147.769 4 8 169
1954036S14149 1954 6 SP EA NOT_NAMED 1954-02-07 21:00:00 TS -20.6209 147.688 main 0 0 P_____P__PP___ SH071954 -20.6650 147.715 -1 -20.5761 147.639 1000 -20.4894 147.609 TC 30 1000 -20.6763 147.743 4 9 165
1954036S14149 1954 6 SP EA NOT_NAMED 1954-02-07 23:00:00 TS -20.9188 147.769 1000 bom main 0 0 P_____O__PO___ SH071954 -20.8947 147.714 -1 -21.0000 147.900 1000 -20.8906 147.865 TC 30 1000 -20.9000 147.700 4 9 169
1954036S14149 1954 6 SP EA NOT_NAMED 1954-02-08 00:00:00 TS -21.0512 147.785 main 0 0 O_____P__OP___ jtwc_sh SH071954 -21.0000 147.700 -1 -21.1936 148.016 1000 -21.1000 148.000 TC 30 1000 -20.9991 147.670 4 7 183
1954036S14149 1954 6 SP EA NOT_NAMED 1954-02-08 03:00:00 TS -21.3727 147.755 main 0 0 P_____P___P___ SH071954 -21.2650 147.587 -1 -21.6855 148.291 1000 TC -21.2755 147.552 4 6 196
1954036S14149 1954 6 SP EA NOT_NAMED 1954-02-08 06:00:00 TS -21.6217 147.613 main 0 0 O_____P___P___ jtwc_sh SH071954 -21.5000 147.400 -1 -22.0747 148.483 1000 -21.5254 147.387 4 6 216
1954036S14149 1954 6 SP EA NOT_NAMED 1954-02-08 09:00:00 TS -21.8485 147.379 main 0 0 P_____P___P___ SH071954 -21.7575 147.173 -1 -22.3998 148.621 1000 -21.7550 147.172 4 7 232
1954036S14149 1954 6 SP EA NOT_NAMED 1954-02-08 11:00:00 TS -21.9676 147.127 1000 bom main 0 0 P_____O___O___ SH071954 -21.9224 146.994 -1 -22.6000 148.700 1000 -21.9000 147.000 4 9 252
1954036S14149 1954 6 SP EA NOT_NAMED 1954-02-08 12:00:00 TS -21.9883 146.902 main 0 0 O_________P___ jtwc_sh SH071954 -22.0000 146.900 -1 -21.9707 146.905 4 8 245
1954036S14149 1954 6 SP EA NOT_NAMED 1954-02-08 15:00:00 TS -22.1937 146.597 main 0 0 P_________P___ SH071954 -22.2101 146.605 -1 -22.1773 146.588 4 7 236
1954036S14149 1954 6 SP EA NOT_NAMED 1954-02-08 18:00:00 TS -22.3861 146.261 main 0 0 O_________P___ jtwc_sh SH071954 -22.4000 146.300 -1 -22.3769 146.235 4 8 241
1954036S14149 1954 6 SP EA NOT_NAMED 1954-02-08 21:00:00 NR -22.5717 145.858 main 0 0 __________P___ SH071954 -1 -22.5717 145.858 4 8 243
1954036S14149 1954 6 SP EA NOT_NAMED 1954-02-08 23:00:00 NR -22.7000 145.600 main 0 __________O___ SH071954 -1 -22.7000 145.600 4 8 242

デジタル台風データ・検索

IBTrACS Databaseについて

本データベースは、米国NOAAが公開する1842年以降の世界の熱帯低気圧のベストトラックデータアーカイブInternational Best Track Archive for Climate Stewardship (IBTrACS)を、ウェブで閲覧しやすい形式に変換したものです。

最終更新日:2021-12-06